Time;durP1;ratioP1;P1;durP2;ratioP2;P2;SDS_P1;SDS_P2;PMS_P1;PMS_P2;Temp;Humidity;BMP_temperature;BMP_pressure;BME280_temperature;BME280_humidity;BME280_pressure;Samples;Min_cycle;Max_cycle;Signal;HPM_P1;HPM_P2
2023/09/04 00:00:02;;;;;;;2.50;1.30;;;21.90;70.30;;;;;;2236362;56;20959;-66
2023/09/04 00:02:31;;;;;;;2.80;1.25;;;21.80;70.20;;;;;;2236581;55;21533;-67
2023/09/04 00:04:57;;;;;;;2.70;1.40;;;21.80;70.20;;;;;;2235643;55;20974;-67
2023/09/04 00:07:23;;;;;;;2.50;1.20;;;21.80;70.10;;;;;;2459847;55;21451;-68
2023/09/04 00:09:54;;;;;;;2.72;1.20;;;21.70;70.00;;;;;;2459204;55;21027;-67
2023/09/04 00:12:20;;;;;;;2.70;1.20;;;21.70;70.00;;;;;;2237125;56;20955;-69
2023/09/04 00:14:47;;;;;;;2.92;1.33;;;21.60;69.90;;;;;;2462702;55;20989;-69
2023/09/04 00:17:18;;;;;;;2.70;1.12;;;21.60;70.00;;;;;;2240384;55;20987;-66
2023/09/04 00:19:50;;;;;;;3.30;1.55;;;21.50;70.00;;;;;;2236220;55;20943;-66
2023/09/04 00:22:16;;;;;;;3.22;1.80;;;21.50;70.20;;;;;;2236710;55;20950;-66
2023/09/04 00:24:43;;;;;;;3.30;1.40;;;21.40;70.20;;;;;;2243394;55;21042;-66
2023/09/04 00:27:09;;;;;;;3.05;1.62;;;21.40;70.30;;;;;;2463706;55;21375;-65
2023/09/04 00:29:35;;;;;;;2.87;1.60;;;21.30;70.30;;;;;;2234767;55;20970;-67
2023/09/04 00:32:02;;;;;;;2.60;1.42;;;21.30;70.50;;;;;;2235745;56;20959;-66
2023/09/04 00:34:28;;;;;;;2.45;1.33;;;21.30;70.50;;;;;;2236237;56;21486;-67
2023/09/04 00:36:55;;;;;;;2.70;1.40;;;21.30;70.50;;;;;;2459241;55;21042;-67
2023/09/04 00:39:24;;;;;;;2.72;1.33;;;21.20;70.40;;;;;;2459548;55;21034;-67
2023/09/04 00:41:50;;;;;;;2.70;1.42;;;21.20;70.50;;;;;;2459504;55;20994;-67
2023/09/04 00:44:18;;;;;;;2.40;1.20;;;21.20;70.50;;;;;;2244915;55;20960;-65
2023/09/04 00:46:44;;;;;;;3.97;1.40;;;21.00;70.30;;;;;;2237598;56;20967;-67
2023/09/04 00:49:11;;;;;;;2.92;1.40;;;21.10;70.50;;;;;;2460422;55;20954;-67
2023/09/04 00:51:40;;;;;;;2.80;1.25;;;21.00;70.50;;;;;;2460291;55;20962;-68
2023/09/04 00:54:09;;;;;;;2.60;1.27;;;21.00;70.60;;;;;;2459817;55;21043;-68
2023/09/04 00:56:35;;;;;;;2.60;1.33;;;21.00;70.70;;;;;;2463811;54;21055;-66
2023/09/04 00:59:02;;;;;;;2.67;1.17;;;20.90;70.60;;;;;;2463776;55;20942;-67
2023/09/04 01:01:29;;;;;;;2.60;1.27;;;21.00;70.70;;;;;;2460174;55;20970;-66
2023/09/04 01:03:55;;;;;;;2.40;1.30;;;20.90;70.60;;;;;;2465738;55;21617;-69
2023/09/04 01:06:22;;;;;;;2.30;1.20;;;20.90;70.60;;;;;;2238027;55;21850;-69
2023/09/04 01:08:48;;;;;;;2.30;1.30;;;20.90;70.70;;;;;;2235047;56;20962;-66
2023/09/04 01:11:26;;;;;;;2.35;1.20;;;20.80;70.50;;;;;;2236442;55;21573;-67
2023/09/04 01:13:53;;;;;;;2.30;1.30;;;20.80;70.50;;;;;;2459411;55;21914;-66
2023/09/04 01:16:20;;;;;;;3.12;1.50;;;20.80;70.50;;;;;;2237015;55;20994;-66
2023/09/04 01:18:48;;;;;;;2.55;1.40;;;20.80;70.60;;;;;;2236678;55;21432;-66
2023/09/04 01:21:16;;;;;;;2.40;1.15;;;20.70;70.70;;;;;;2468956;54;20989;-67
2023/09/04 01:23:43;;;;;;;2.90;1.48;;;20.70;70.70;;;;;;2237035;56;20990;-67
2023/09/04 01:27:39;;;;;;;2.75;1.50;;;20.70;70.80;;;;;;2460592;55;21023;-69
2023/09/04 01:30:09;;;;;;;2.15;1.20;;;20.70;70.10;;;;;;2460118;55;22222;-66
2023/09/04 01:32:41;;;;;;;2.17;1.00;;;20.60;71.00;;;;;;2236901;56;20994;-66
2023/09/04 01:35:09;;;;;;;3.72;1.35;;;20.60;70.70;;;;;;2237124;55;20991;-67
2023/09/04 01:37:36;;;;;;;2.42;1.33;;;20.60;70.80;;;;;;2236759;56;20958;-67
2023/09/04 01:40:07;;;;;;;2.80;1.50;;;20.50;70.80;;;;;;2460062;55;21727;-66
2023/09/04 01:42:34;;;;;;;2.50;1.30;;;20.50;71.00;;;;;;2460532;55;20946;-69
2023/09/04 01:45:02;;;;;;;2.42;1.23;;;20.50;71.00;;;;;;2459210;55;20997;-66
2023/09/04 01:47:30;;;;;;;2.72;1.40;;;20.50;71.10;;;;;;2237026;55;21742;-68
2023/09/04 01:49:57;;;;;;;2.50;1.20;;;20.50;71.20;;;;;;2237485;55;21043;-68
2023/09/04 01:52:23;;;;;;;4.03;1.70;;;20.40;71.20;;;;;;2459587;55;21027;-67
2023/09/04 01:54:50;;;;;;;3.60;1.60;;;20.40;71.20;;;;;;2237052;55;21804;-70
2023/09/04 01:57:16;;;;;;;4.30;1.60;;;20.40;72.00;;;;;;2237287;56;20990;-68
2023/09/04 01:59:42;;;;;;;3.30;1.70;;;20.40;71.50;;;;;;2460233;55;21017;-70
2023/09/04 02:02:11;;;;;;;3.10;1.35;;;20.40;71.50;;;;;;2237112;55;21153;-68
2023/09/04 02:04:37;;;;;;;2.47;1.33;;;20.40;71.50;;;;;;2237038;55;21047;-66
2023/09/04 02:07:04;;;;;;;2.75;1.55;;;20.40;71.60;;;;;;2460168;55;20967;-68
2023/09/04 02:09:30;;;;;;;3.05;1.60;;;20.40;71.60;;;;;;2242093;55;21843;-67
2023/09/04 02:11:58;;;;;;;4.07;2.17;;;20.30;71.50;;;;;;2241772;56;21034;-67
2023/09/04 02:14:24;;;;;;;3.47;1.65;;;20.30;71.50;;;;;;2236876;56;21022;-69
2023/09/04 02:16:53;;;;;;;2.90;1.60;;;20.30;71.60;;;;;;2460382;55;21432;-67
2023/09/04 02:19:20;;;;;;;2.62;1.45;;;20.30;71.50;;;;;;2454502;55;21345;-66
2023/09/04 02:21:49;;;;;;;3.50;1.87;;;20.30;71.50;;;;;;2237141;56;20959;-66
2023/09/04 02:24:16;;;;;;;3.17;1.42;;;20.30;71.50;;;;;;2448194;55;20906;-68
2023/09/04 02:26:45;;;;;;;3.62;1.62;;;20.20;71.70;;;;;;2429820;56;20953;-69
2023/09/04 02:29:11;;;;;;;2.95;1.42;;;20.30;71.60;;;;;;2429913;56;20953;-67
2023/09/04 02:31:38;;;;;;;3.30;1.75;;;20.20;71.60;;;;;;2430287;56;20974;-67
2023/09/04 02:34:05;;;;;;;2.50;1.30;;;20.20;71.50;;;;;;2211485;57;21017;-66
2023/09/04 02:36:31;;;;;;;3.97;1.30;;;20.20;71.40;;;;;;2212028;57;21010;-66
2023/09/04 02:38:57;;;;;;;2.45;1.30;;;20.20;71.30;;;;;;2429691;56;20970;-66
2023/09/04 02:41:23;;;;;;;2.92;1.45;;;20.20;71.40;;;;;;2213436;57;20930;-66
2023/09/04 02:43:51;;;;;;;3.42;1.55;;;20.10;71.30;;;;;;2211641;56;20953;-69
2023/09/04 02:46:19;;;;;;;2.40;1.25;;;20.10;71.40;;;;;;2430627;56;20995;-68
2023/09/04 02:48:52;;;;;;;3.45;1.37;;;20.10;71.50;;;;;;2212337;56;21879;-66
2023/09/04 02:51:21;;;;;;;2.70;1.30;;;20.10;71.50;;;;;;2215118;56;20961;-66
2023/09/04 02:53:48;;;;;;;3.37;1.50;;;20.10;71.40;;;;;;2429762;56;20953;-68
2023/09/04 02:56:15;;;;;;;2.78;1.40;;;20.00;71.30;;;;;;2206087;56;20966;-66
2023/09/04 02:58:42;;;;;;;2.42;1.35;;;20.00;71.20;;;;;;2463715;55;21010;-67
2023/09/04 03:01:11;;;;;;;2.78;1.37;;;20.00;71.40;;;;;;2464711;55;20978;-66
2023/09/04 03:03:37;;;;;;;2.80;1.15;;;20.00;71.50;;;;;;2465583;55;20983;-67
2023/09/04 03:06:08;;;;;;;2.40;1.40;;;19.90;71.50;;;;;;2241715;57;21444;-65
2023/09/04 03:08:34;;;;;;;2.50;1.40;;;19.90;71.40;;;;;;2465812;55;20979;-66
2023/09/04 03:11:09;;;;;;;2.85;1.42;;;19.90;71.60;;;;;;2465204;56;21007;-67
2023/09/04 03:13:36;;;;;;;2.30;1.20;;;19.90;71.40;;;;;;2465701;55;20986;-66
2023/09/04 03:16:05;;;;;;;2.90;1.30;;;19.90;71.70;;;;;;2241050;57;21069;-67
2023/09/04 03:18:33;;;;;;;2.60;1.40;;;19.80;71.60;;;;;;2465117;55;20935;-67
2023/09/04 03:21:01;;;;;;;2.67;1.40;;;19.80;71.70;;;;;;2464641;55;20978;-66
2023/09/04 03:23:28;;;;;;;4.82;1.50;;;19.80;71.70;;;;;;2241557;57;21078;-65
2023/09/04 03:25:55;;;;;;;2.37;1.10;;;19.80;71.70;;;;;;2241223;57;21042;-66
2023/09/04 03:28:24;;;;;;;3.03;1.65;;;19.80;71.70;;;;;;2465806;55;20959;-66
2023/09/04 03:30:50;;;;;;;2.72;1.48;;;19.80;71.80;;;;;;2242187;56;20962;-67
2023/09/04 03:33:17;;;;;;;2.92;1.40;;;19.80;71.80;;;;;;2466000;56;21078;-66
2023/09/04 03:35:44;;;;;;;2.40;1.30;;;19.80;72.50;;;;;;2464949;55;20962;-67
2023/09/04 03:38:14;;;;;;;2.60;1.30;;;19.80;71.80;;;;;;2240846;57;21847;-69
2023/09/04 03:40:40;;;;;;;2.72;1.37;;;19.70;71.70;;;;;;2240947;57;20990;-66
2023/09/04 03:43:06;;;;;;;3.67;1.83;;;19.70;71.50;;;;;;2465225;55;21822;-66
2023/09/04 03:45:33;;;;;;;2.62;1.40;;;19.70;71.50;;;;;;2465312;55;20998;-65
2023/09/04 03:47:59;;;;;;;4.05;1.52;;;19.70;71.50;;;;;;2447883;55;21019;-68
2023/09/04 03:50:30;;;;;;;2.30;1.15;;;19.60;71.40;;;;;;2237391;57;20991;-66
2023/09/04 03:52:57;;;;;;;2.80;1.40;;;19.60;71.30;;;;;;2232964;56;20990;-66
2023/09/04 03:55:24;;;;;;;2.70;1.60;;;19.60;71.40;;;;;;2464752;55;20996;-66
2023/09/04 03:57:51;;;;;;;2.95;1.30;;;19.60;71.50;;;;;;2240572;57;21006;-66
2023/09/04 04:00:18;;;;;;;3.95;1.48;;;19.50;71.40;;;;;;2240943;57;20943;-66
2023/09/04 04:02:45;;;;;;;2.72;1.58;;;19.50;71.40;;;;;;2465169;55;20954;-65
2023/09/04 04:05:12;;;;;;;2.90;1.60;;;19.50;71.60;;;;;;2464406;55;21006;-68
2023/09/04 04:07:40;;;;;;;2.70;1.50;;;19.50;71.70;;;;;;2240876;57;21019;-65
2023/09/04 04:10:07;;;;;;;3.15;1.55;;;19.50;71.70;;;;;;2240736;57;20935;-66
2023/09/04 04:12:34;;;;;;;3.15;1.70;;;19.50;71.70;;;;;;2241115;57;20971;-66
2023/09/04 04:15:07;;;;;;;2.50;1.40;;;19.50;71.80;;;;;;2465511;55;21711;-66
2023/09/04 04:17:34;;;;;;;4.40;2.00;;;19.40;71.60;;;;;;2466069;55;21782;-66
2023/09/04 04:20:00;;;;;;;3.65;2.37;;;19.40;71.70;;;;;;2465456;55;21864;-69
2023/09/04 04:22:27;;;;;;;3.97;1.92;;;19.40;71.80;;;;;;2464510;55;20998;-66
2023/09/04 04:24:53;;;;;;;3.03;1.70;;;19.40;71.80;;;;;;2464328;55;20986;-66
2023/09/04 04:27:20;;;;;;;3.65;1.90;;;19.40;71.70;;;;;;2240402;56;20967;-66
2023/09/04 04:29:55;;;;;;;3.05;1.67;;;19.40;71.60;;;;;;2240421;57;20983;-68
2023/09/04 04:32:21;;;;;;;3.15;1.75;;;19.30;71.40;;;;;;2240739;57;21413;-66
2023/09/04 04:34:48;;;;;;;2.90;1.65;;;19.30;71.40;;;;;;2464771;55;21570;-66
2023/09/04 04:37:14;;;;;;;3.72;2.12;;;19.30;71.40;;;;;;2465435;55;20987;-68
2023/09/04 04:39:43;;;;;;;3.50;1.90;;;19.30;71.40;;;;;;2241257;57;20951;-67
2023/09/04 04:42:11;;;;;;;3.67;1.77;;;19.20;71.40;;;;;;2240482;57;20962;-70
2023/09/04 04:44:39;;;;;;;3.70;2.08;;;19.20;71.50;;;;;;2464882;55;20954;-66
2023/09/04 04:47:06;;;;;;;4.35;2.35;;;19.20;71.50;;;;;;2241054;57;21428;-68
2023/09/04 04:49:33;;;;;;;3.10;2.10;;;19.10;71.40;;;;;;2241725;57;21013;-67
2023/09/04 04:51:59;;;;;;;4.00;2.47;;;19.10;71.40;;;;;;2234259;57;21386;-66
2023/09/04 04:54:26;;;;;;;3.97;2.33;;;19.10;71.50;;;;;;2459839;55;20998;-67
2023/09/04 04:56:52;;;;;;;3.75;2.33;;;19.10;71.50;;;;;;2240914;57;20954;-69
2023/09/04 04:59:18;;;;;;;4.10;2.42;;;19.10;71.60;;;;;;2240950;57;21078;-67
2023/09/04 05:01:45;;;;;;;3.72;2.00;;;19.10;71.70;;;;;;2447300;55;21487;-67
2023/09/04 05:04:11;;;;;;;4.03;2.20;;;19.00;71.70;;;;;;2236034;56;21015;-66
2023/09/04 05:06:39;;;;;;;4.03;2.53;;;19.00;71.80;;;;;;2234501;57;20962;-66
2023/09/04 05:09:05;;;;;;;4.10;2.65;;;19.00;71.90;;;;;;2241423;57;20966;-66
2023/09/04 05:11:32;;;;;;;4.40;2.83;;;19.10;72.10;;;;;;2241745;57;20979;-67
2023/09/04 05:13:59;;;;;;;4.75;3.22;;;19.00;72.10;;;;;;2465644;55;20978;-66
2023/09/04 05:16:26;;;;;;;4.05;2.70;;;19.00;72.10;;;;;;2465643;55;21525;-67
2023/09/04 05:18:53;;;;;;;3.97;2.45;;;19.00;72.10;;;;;;2465624;55;21018;-66
2023/09/04 05:21:20;;;;;;;4.50;2.47;;;19.00;72.10;;;;;;2466003;55;20967;-66
2023/09/04 05:23:47;;;;;;;3.78;2.20;;;19.00;72.10;;;;;;2241483;57;21014;-68
2023/09/04 05:26:14;;;;;;;5.30;2.58;;;19.00;72.10;;;;;;2466006;55;20923;-69
2023/09/04 05:28:40;;;;;;;3.65;2.50;;;19.00;72.10;;;;;;2465474;55;21022;-66
2023/09/04 05:31:06;;;;;;;4.78;2.75;;;19.00;72.20;;;;;;2240578;57;20954;-66
2023/09/04 05:33:33;;;;;;;5.50;3.42;;;19.00;72.30;;;;;;2465297;55;21745;-68
2023/09/04 05:36:00;;;;;;;5.18;2.90;;;19.00;72.40;;;;;;2237818;57;21429;-66
2023/09/04 05:38:27;;;;;;;5.47;3.45;;;19.00;72.40;;;;;;2231921;57;20994;-68
2023/09/04 05:40:54;;;;;;;7.15;2.95;;;19.00;72.40;;;;;;2464533;55;20995;-68
2023/09/04 05:43:22;;;;;;;5.15;3.08;;;19.10;72.60;;;;;;2465043;55;21006;-66
2023/09/04 05:45:49;;;;;;;8.10;3.37;;;19.10;72.70;;;;;;2240973;57;21086;-66
2023/09/04 05:48:16;;;;;;;5.30;3.80;;;19.10;72.80;;;;;;2241223;57;21015;-66
2023/09/04 05:50:43;;;;;;;6.90;3.80;;;19.10;72.90;;;;;;2465060;55;20983;-66
2023/09/04 05:53:11;;;;;;;5.18;3.05;;;19.10;73.00;;;;;;2465477;55;21006;-67
2023/09/04 05:55:40;;;;;;;5.62;3.60;;;19.10;73.10;;;;;;2238334;57;21011;-65
2023/09/04 05:58:07;;;;;;;5.85;3.95;;;19.10;73.30;;;;;;2232710;56;21888;-66
2023/09/04 06:00:33;;;;;;;5.97;3.60;;;19.20;73.40;;;;;;2240837;57;20954;-67
2023/09/04 06:02:59;;;;;;;5.22;3.45;;;19.20;73.50;;;;;;2241206;57;21030;-66
2023/09/04 06:05:26;;;;;;;5.53;3.90;;;19.30;73.70;;;;;;2236236;57;21032;-66
2023/09/04 06:07:53;;;;;;;6.50;4.50;;;19.30;73.80;;;;;;2233548;57;21540;-66
2023/09/04 06:10:19;;;;;;;5.55;3.90;;;19.30;73.80;;;;;;2230777;57;21033;-68
2023/09/04 06:12:46;;;;;;;6.32;3.95;;;19.40;73.90;;;;;;2465877;55;21002;-68
2023/09/04 06:15:12;;;;;;;5.28;3.47;;;19.40;73.90;;;;;;2465783;55;21025;-65
2023/09/04 06:17:40;;;;;;;5.10;3.10;;;19.40;73.90;;;;;;2465282;55;21034;-68
2023/09/04 06:20:08;;;;;;;5.10;3.40;;;19.50;74.00;;;;;;2240957;57;21410;-66
2023/09/04 06:22:35;;;;;;;6.65;3.55;;;19.50;73.90;;;;;;2241285;57;20962;-69
2023/09/04 06:25:01;;;;;;;6.25;3.97;;;19.50;73.80;;;;;;2464789;55;20978;-67
2023/09/04 06:27:27;;;;;;;5.75;3.78;;;19.60;73.90;;;;;;2241037;57;20950;-66
2023/09/04 06:29:54;;;;;;;4.97;3.03;;;19.60;73.90;;;;;;2465009;55;20991;-66
2023/09/04 06:32:20;;;;;;;6.15;3.87;;;19.70;74.00;;;;;;2465216;55;20966;-67
2023/09/04 06:34:46;;;;;;;5.60;3.45;;;19.70;74.00;;;;;;2465179;55;20959;-67
2023/09/04 06:37:13;;;;;;;4.78;2.78;;;19.70;73.90;;;;;;2465612;55;21079;-67
2023/09/04 06:39:42;;;;;;;4.03;2.67;;;19.80;74.00;;;;;;2465282;55;21027;-69
2023/09/04 06:42:09;;;;;;;5.22;2.60;;;19.80;73.80;;;;;;2229493;57;20919;-70
2023/09/04 06:44:36;;;;;;;4.68;2.70;;;19.80;73.90;;;;;;2241083;57;21097;-67
2023/09/04 06:47:02;;;;;;;7.03;3.87;;;19.90;74.00;;;;;;2449205;56;20963;-67
2023/09/04 06:49:31;;;;;;;4.60;2.80;;;19.90;74.10;;;;;;2230967;57;20935;-66
2023/09/04 06:51:58;;;;;;;5.12;3.10;;;19.90;74.10;;;;;;2231869;57;21081;-66
2023/09/04 06:54:24;;;;;;;4.07;2.58;;;20.00;74.10;;;;;;2449839;55;21470;-69
2023/09/04 06:56:51;;;;;;;6.12;3.30;;;20.00;74.10;;;;;;2464518;55;20967;-67
2023/09/04 06:59:19;;;;;;;4.18;2.78;;;20.00;74.10;;;;;;2231945;57;21031;-67
2023/09/04 07:01:46;;;;;;;5.70;3.47;;;20.10;74.20;;;;;;2452763;55;21777;-69
2023/09/04 07:04:12;;;;;;;5.05;3.25;;;20.10;74.20;;;;;;2239007;57;20978;-68
2023/09/04 07:06:39;;;;;;;4.75;2.70;;;20.20;75.10;;;;;;2240732;57;21014;-67
2023/09/04 07:09:05;;;;;;;5.00;2.92;;;20.20;74.50;;;;;;2240897;57;21575;-71
2023/09/04 07:11:32;;;;;;;5.05;3.28;;;20.20;74.50;;;;;;2464572;55;21427;-68
2023/09/04 07:14:00;;;;;;;4.75;2.65;;;20.30;74.60;;;;;;2463926;56;20999;-68
2023/09/04 07:16:26;;;;;;;3.92;2.42;;;20.30;74.60;;;;;;2240510;57;21769;-67
2023/09/04 07:19:02;;;;;;;4.22;2.65;;;20.40;74.70;;;;;;2239064;57;21018;-67
2023/09/04 07:21:29;;;;;;;3.92;2.25;;;20.40;74.60;;;;;;2446623;55;20996;-68
2023/09/04 07:23:55;;;;;;;4.28;2.70;;;20.50;74.80;;;;;;2240239;57;21041;-69
2023/09/04 07:26:21;;;;;;;3.72;2.37;;;20.50;74.80;;;;;;2240070;57;20974;-67
2023/09/04 07:28:48;;;;;;;3.58;2.20;;;20.50;74.90;;;;;;2241240;57;21010;-67
2023/09/04 07:31:19;;;;;;;3.22;2.03;;;20.60;75.00;;;;;;2427115;55;20986;-68
2023/09/04 07:33:48;;;;;;;4.12;2.70;;;20.70;75.00;;;;;;2465013;55;21034;-67
2023/09/04 07:36:14;;;;;;;4.03;2.53;;;20.70;75.10;;;;;;2465548;55;20990;-67
2023/09/04 07:38:41;;;;;;;4.12;2.22;;;20.80;75.30;;;;;;2464471;55;21970;-66
2023/09/04 07:41:08;;;;;;;3.60;2.20;;;20.80;75.40;;;;;;2240960;57;20978;-67
2023/09/04 07:43:34;;;;;;;3.45;2.15;;;20.90;75.50;;;;;;2464940;55;21020;-67
2023/09/04 07:46:02;;;;;;;5.35;2.37;;;20.90;75.50;;;;;;2240528;57;21053;-69
2023/09/04 07:48:29;;;;;;;3.85;2.45;;;21.00;75.50;;;;;;2240162;57;21871;-67
2023/09/04 07:50:56;;;;;;;3.85;2.40;;;21.10;75.60;;;;;;2463930;55;21054;-67
2023/09/04 07:53:23;;;;;;;4.70;2.50;;;21.20;75.70;;;;;;2240190;57;21003;-66
2023/09/04 07:55:49;;;;;;;3.95;2.62;;;21.20;75.80;;;;;;2240646;57;21054;-69
2023/09/04 07:58:20;;;;;;;3.90;2.37;;;21.30;75.90;;;;;;2464979;55;21722;-67
2023/09/04 08:00:47;;;;;;;5.45;3.00;;;21.30;75.90;;;;;;2465181;55;21070;-68
2023/09/04 08:03:14;;;;;;;3.92;2.40;;;21.40;76.00;;;;;;2433473;56;21434;-67
2023/09/04 08:05:40;;;;;;;3.92;2.33;;;21.50;76.10;;;;;;2416854;56;20972;-71
2023/09/04 08:08:10;;;;;;;5.20;2.50;;;21.60;76.10;;;;;;2213784;57;20992;-68
2023/09/04 08:10:41;;;;;;;5.05;2.53;;;21.70;76.20;;;;;;2433549;56;21005;-70
2023/09/04 08:13:18;;;;;;;3.40;2.25;;;21.70;76.00;;;;;;2215486;58;21005;-69
2023/09/04 08:15:44;;;;;;;5.90;2.53;;;21.80;76.10;;;;;;2214671;58;21086;-67
2023/09/04 08:18:11;;;;;;;4.37;2.78;;;21.90;76.20;;;;;;2440040;56;21032;-69
2023/09/04 08:20:38;;;;;;;3.40;2.20;;;22.00;76.30;;;;;;2206379;57;21038;-68
2023/09/04 08:23:09;;;;;;;3.80;2.30;;;22.10;76.30;;;;;;2207942;57;21005;-68
2023/09/04 08:25:36;;;;;;;4.68;2.20;;;22.20;76.40;;;;;;2429654;56;21822;-68
2023/09/04 08:28:03;;;;;;;4.05;2.35;;;22.20;76.40;;;;;;2205355;56;21005;-68
2023/09/04 08:30:30;;;;;;;3.60;2.25;;;22.30;76.40;;;;;;2209814;57;20952;-68
2023/09/04 08:32:58;;;;;;;3.87;2.40;;;22.40;76.40;;;;;;2430017;56;21025;-68
2023/09/04 08:35:28;;;;;;;5.05;2.87;;;22.50;76.40;;;;;;2211403;57;20957;-69
2023/09/04 08:37:57;;;;;;;4.20;2.65;;;22.60;76.50;;;;;;2429755;56;20989;-68
2023/09/04 08:40:23;;;;;;;4.37;2.80;;;22.60;76.30;;;;;;2429944;56;21000;-67
2023/09/04 08:42:50;;;;;;;4.55;2.58;;;22.70;76.30;;;;;;2439217;56;20977;-66
2023/09/04 08:45:17;;;;;;;3.72;2.50;;;22.80;76.30;;;;;;2219169;56;21044;-68
2023/09/04 08:47:43;;;;;;;4.07;2.58;;;22.90;76.30;;;;;;2424306;56;21455;-68
2023/09/04 08:50:13;;;;;;;4.03;2.30;;;23.00;76.40;;;;;;2422897;56;21120;-70
2023/09/04 08:52:40;;;;;;;4.53;2.30;;;23.10;76.40;;;;;;2429596;56;21096;-67
2023/09/04 08:55:07;;;;;;;3.47;2.10;;;23.20;76.30;;;;;;2211710;57;20980;-67
2023/09/04 08:57:34;;;;;;;4.35;2.50;;;23.30;76.30;;;;;;2429519;56;21592;-68
2023/09/04 09:00:00;;;;;;;4.03;2.40;;;23.40;76.30;;;;;;2210845;57;21014;-67
2023/09/04 09:02:27;;;;;;;4.22;2.50;;;23.40;76.10;;;;;;2429767;56;21005;-68
2023/09/04 09:04:53;;;;;;;3.60;2.33;;;23.50;76.10;;;;;;2216559;56;21044;-69
2023/09/04 09:07:23;;;;;;;3.97;2.22;;;23.60;76.00;;;;;;2219434;56;21029;-68
2023/09/04 09:09:50;;;;;;;3.60;2.00;;;23.70;76.00;;;;;;2433950;56;21786;-67
2023/09/04 09:12:16;;;;;;;3.10;1.92;;;23.80;75.90;;;;;;2205553;56;20974;-68
2023/09/04 09:14:44;;;;;;;3.85;2.10;;;23.90;76.00;;;;;;2202240;57;21038;-69
2023/09/04 09:17:14;;;;;;;4.25;2.12;;;23.90;75.90;;;;;;2432496;56;21484;-67
2023/09/04 09:19:41;;;;;;;3.42;1.83;;;24.00;75.90;;;;;;2215076;58;21013;-68
2023/09/04 09:22:15;;;;;;;3.20;1.80;;;24.10;75.70;;;;;;2443260;56;21271;-67
2023/09/04 09:25:03;;;;;;;4.35;2.00;;;24.20;75.20;;;;;;2429816;56;21838;-68
2023/09/04 09:27:30;;;;;;;3.10;1.80;;;24.30;74.70;;;;;;2430136;57;20952;-67
2023/09/04 09:29:58;;;;;;;4.53;1.80;;;24.40;75.80;;;;;;2429527;56;21060;-67
2023/09/04 09:32:31;;;;;;;3.78;2.17;;;24.50;75.80;;;;;;2211681;57;21013;-68
2023/09/04 09:35:00;;;;;;;3.60;2.30;;;24.60;75.20;;;;;;2429508;56;21140;-69
2023/09/04 09:37:29;;;;;;;3.30;2.00;;;24.70;75.50;;;;;;2210735;57;21283;-67
2023/09/04 09:39:56;;;;;;;5.10;2.00;;;24.80;75.30;;;;;;2212246;56;21502;-65
2023/09/04 09:42:24;;;;;;;3.53;1.90;;;24.90;75.30;;;;;;2214937;58;21267;-70
2023/09/04 09:44:53;;;;;;;3.80;2.10;;;25.00;75.20;;;;;;2435077;56;20985;-68
2023/09/04 09:47:21;;;;;;;3.35;1.73;;;25.00;75.00;;;;;;2434433;56;21020;-69
2023/09/04 09:49:47;;;;;;;3.17;2.00;;;25.20;75.00;;;;;;2442238;56;20992;-70
2023/09/04 09:52:13;;;;;;;3.35;1.80;;;25.20;74.90;;;;;;2430544;56;21005;-67
2023/09/04 09:54:46;;;;;;;3.55;2.28;;;25.30;74.90;;;;;;2439755;55;21012;-68
2023/09/04 09:57:17;;;;;;;3.28;1.60;;;25.40;74.50;;;;;;2452922;55;20975;-68
2023/09/04 09:59:50;;;;;;;2.87;1.73;;;25.50;74.70;;;;;;2433993;56;20989;-68
2023/09/04 10:02:24;;;;;;;3.20;1.80;;;25.70;74.60;;;;;;2434411;55;21434;-70
2023/09/04 10:04:51;;;;;;;3.20;1.85;;;25.70;73.80;;;;;;2433629;56;20957;-68
2023/09/04 10:07:27;;;;;;;3.30;2.12;;;25.70;74.30;;;;;;2415428;56;21045;-68
2023/09/04 10:10:04;;;;;;;2.97;1.80;;;25.80;73.90;;;;;;2211732;57;21790;-70
2023/09/04 10:14:25;;;;;;;3.33;1.92;;;25.90;73.00;;;;;;2211108;57;20960;-69
2023/09/04 10:17:02;;;;;;;3.22;1.65;;;26.00;72.60;;;;;;2440853;56;21463;-68
2023/09/04 10:19:33;;;;;;;3.30;1.90;;;26.10;72.50;;;;;;2218292;57;20964;-70
2023/09/04 10:22:15;;;;;;;3.28;1.85;;;26.20;73.20;;;;;;2429023;56;21484;-68
2023/09/04 10:25:09;;;;;;;3.55;1.85;;;26.30;72.00;;;;;;2424258;56;21084;-68
2023/09/04 10:27:41;;;;;;;3.08;1.70;;;26.30;71.30;;;;;;2426673;56;20993;-68
2023/09/04 10:30:08;;;;;;;3.03;1.70;;;26.40;72.40;;;;;;2434591;56;20977;-71
2023/09/04 10:32:35;;;;;;;2.90;1.80;;;26.40;72.80;;;;;;2434564;56;21049;-68
2023/09/04 10:35:03;;;;;;;2.72;1.50;;;26.50;72.80;;;;;;2433836;56;21055;-68
2023/09/04 10:37:38;;;;;;;4.57;1.77;;;26.50;73.30;;;;;;2434018;56;21002;-67
2023/09/04 10:40:06;;;;;;;2.87;1.67;;;26.60;72.30;;;;;;2434522;56;20965;-68
2023/09/04 10:42:33;;;;;;;3.00;1.42;;;26.70;72.20;;;;;;2434552;56;21475;-68
2023/09/04 10:45:11;;;;;;;2.97;1.73;;;26.70;72.10;;;;;;2433879;56;21112;-70
2023/09/04 10:47:46;;;;;;;3.03;1.83;;;26.80;70.90;;;;;;2434824;56;21033;-68
2023/09/04 10:50:37;;;;;;;3.08;1.80;;;26.90;71.10;;;;;;2442392;56;21581;-69
2023/09/04 10:53:06;;;;;;;2.97;1.70;;;26.90;70.40;;;;;;2214886;58;20985;-68
2023/09/04 10:55:35;;;;;;;2.95;1.60;;;27.00;71.50;;;;;;2426436;56;21660;-68
2023/09/04 10:58:05;;;;;;;3.40;2.10;;;27.10;71.70;;;;;;2213671;56;21438;-68
2023/09/04 11:00:40;;;;;;;2.83;1.67;;;27.20;71.50;;;;;;2215327;58;20962;-70
2023/09/04 11:03:19;;;;;;;2.45;1.42;;;27.20;70.40;;;;;;2215656;58;20973;-68
2023/09/04 11:06:08;;;;;;;2.58;1.60;;;27.30;69.90;;;;;;2214765;58;20942;-69
2023/09/04 11:08:35;;;;;;;2.50;1.33;;;27.40;69.60;;;;;;2424856;56;20956;-68
2023/09/04 11:11:05;;;;;;;4.00;1.83;;;27.50;71.20;;;;;;2202286;56;21081;-69
2023/09/04 11:13:38;;;;;;;3.10;1.75;;;27.50;70.60;;;;;;2430658;56;21864;-68
2023/09/04 11:16:06;;;;;;;2.67;1.55;;;27.60;70.20;;;;;;2429257;56;20956;-67
2023/09/04 11:18:34;;;;;;;2.67;1.45;;;27.70;70.90;;;;;;2211761;57;21028;-67
2023/09/04 11:21:01;;;;;;;2.90;1.60;;;27.80;70.80;;;;;;2211103;57;21020;-68
2023/09/04 11:23:28;;;;;;;2.95;1.45;;;27.80;70.70;;;;;;2430094;56;20976;-67
2023/09/04 11:25:55;;;;;;;2.83;1.50;;;27.90;70.50;;;;;;2397365;57;21036;-67
2023/09/04 11:28:26;;;;;;;2.37;1.40;;;28.00;70.30;;;;;;2433641;56;20962;-70
2023/09/04 11:30:53;;;;;;;2.70;1.57;;;28.10;69.30;;;;;;2434044;56;21741;-68
2023/09/04 11:33:23;;;;;;;3.17;1.67;;;28.10;69.90;;;;;;2434161;56;20945;-67
2023/09/04 11:36:03;;;;;;;3.50;1.83;;;28.20;69.70;;;;;;2433616;56;21388;-67
2023/09/04 11:38:30;;;;;;;2.70;1.50;;;28.30;68.10;;;;;;2431536;56;21526;-68
2023/09/04 11:40:57;;;;;;;3.17;1.60;;;28.40;69.40;;;;;;2214574;58;21046;-68
2023/09/04 11:43:24;;;;;;;2.72;1.60;;;28.40;69.10;;;;;;2214649;58;20945;-67
2023/09/04 11:45:57;;;;;;;2.95;1.70;;;28.50;69.10;;;;;;2433916;56;21065;-69
2023/09/04 11:48:24;;;;;;;2.72;1.60;;;28.60;68.90;;;;;;2434363;56;21725;-69
2023/09/04 11:50:51;;;;;;;4.68;1.60;;;28.70;68.70;;;;;;2213990;58;21036;-67
2023/09/04 11:53:18;;;;;;;3.03;1.40;;;28.70;68.70;;;;;;2433638;56;21540;-69
2023/09/04 11:55:45;;;;;;;3.10;1.50;;;28.80;68.50;;;;;;2213815;58;21557;-66
2023/09/04 11:58:12;;;;;;;4.53;1.40;;;28.80;68.30;;;;;;2434164;56;21006;-70
2023/09/04 12:00:39;;;;;;;2.75;1.58;;;28.90;68.20;;;;;;2214792;58;22272;-66
2023/09/04 12:03:09;;;;;;;5.28;1.87;;;29.00;68.20;;;;;;2215371;58;20953;-69
2023/09/04 12:05:35;;;;;;;3.10;1.42;;;29.10;68.40;;;;;;2432172;56;21375;-67
2023/09/04 12:08:04;;;;;;;2.45;1.30;;;29.10;67.90;;;;;;2214372;58;20930;-69
2023/09/04 12:10:34;;;;;;;2.27;1.27;;;29.20;67.70;;;;;;2214665;58;21017;-68
2023/09/04 12:13:01;;;;;;;4.20;1.50;;;29.30;67.70;;;;;;2214049;58;21006;-69
2023/09/04 12:15:30;;;;;;;2.58;1.40;;;29.30;67.20;;;;;;2429877;56;20971;-70
2023/09/04 12:17:58;;;;;;;2.50;1.37;;;29.40;67.30;;;;;;2202305;56;21080;-68
2023/09/04 12:20:24;;;;;;;3.00;1.48;;;29.50;67.40;;;;;;2420031;56;20944;-68
2023/09/04 12:22:57;;;;;;;3.17;1.30;;;29.60;67.20;;;;;;2223594;56;21041;-69
2023/09/04 12:25:26;;;;;;;2.90;1.25;;;29.60;66.70;;;;;;2216345;56;20927;-68
2023/09/04 12:27:53;;;;;;;2.83;1.52;;;29.70;67.10;;;;;;2236200;56;20929;-67
2023/09/04 12:30:22;;;;;;;3.33;1.60;;;29.80;67.90;;;;;;2445978;56;20996;-67
2023/09/04 12:32:49;;;;;;;2.33;1.30;;;29.90;66.70;;;;;;2236771;56;21024;-69
2023/09/04 12:35:18;;;;;;;2.67;1.33;;;29.90;66.90;;;;;;2236683;56;21056;-67
2023/09/04 12:37:44;;;;;;;3.60;1.60;;;30.00;66.70;;;;;;2238628;56;20957;-68
2023/09/04 12:40:11;;;;;;;2.80;1.62;;;30.10;67.00;;;;;;2236223;56;21036;-67
2023/09/04 12:42:39;;;;;;;3.12;1.58;;;30.20;66.80;;;;;;2442252;56;21029;-69
2023/09/04 12:45:07;;;;;;;2.70;1.37;;;30.20;66.50;;;;;;2236203;56;20972;-67
2023/09/04 12:47:37;;;;;;;2.47;1.30;;;30.30;66.70;;;;;;2236334;56;21105;-69
2023/09/04 12:50:04;;;;;;;2.58;1.37;;;30.40;66.40;;;;;;2236241;56;20965;-69
2023/09/04 12:52:30;;;;;;;2.75;1.35;;;30.50;66.30;;;;;;2236721;56;21738;-67
2023/09/04 12:54:57;;;;;;;2.67;1.50;;;30.50;66.40;;;;;;2459752;55;21012;-67